CheckWX is a tool to help pilots better visualize weather data.  It is not intended as a substitute for an official pre-flight weather briefing.

03:08:45 UTC

ENGC METAR
Gullfax Platform Airport
Norway
Current

19 mins ago

ENGC 230250Z 18017KT CAVOK 14/10 Q1013 W12/S3
Observed
Sep-23 @ 02:50 UTC
Wind
  • 180° at 17 KTS
Visibility
10,000+ meters
Flight Rules
VFR
Cloud Levels
  • Clear skies
Temperature
14°C / 57°F
Dewpoint
10°C / 50°F
Humidity
77%
Altimeter
29.91" Hg
Pressure
1012.92 hPa
Previous

1 hour ago

ENGC 230150Z 20017KT CAVOK 14/10 Q1013 W12/S3
Observed
Sep-23 @ 01:50 UTC
Wind
  • 200° at 17 KTS
Visibility
10,000+ meters
Flight Rules
VFR
Cloud Levels
  • Clear skies
Temperature
14°C / 57°F
Dewpoint
10°C / 50°F
Humidity
77%
Altimeter
29.91" Hg
Pressure
1012.92 hPa
Previous

2 hours ago

ENGC 230050Z 19017KT CAVOK 13/11 Q1013 W11/S3
Observed
Sep-23 @ 00:50 UTC
Wind
  • 190° at 17 KTS
Visibility
10,000+ meters
Flight Rules
VFR
Cloud Levels
  • Clear skies
Temperature
13°C / 55°F
Dewpoint
11°C / 52°F
Humidity
88%
Altimeter
29.91" Hg
Pressure
1012.92 hPa